Time;durP1;ratioP1;P1;durP2;ratioP2;P2;SDS_P1;SDS_P2;PMS_P1;PMS_P2;Temp;Humidity;BMP_temperature;BMP_pressure;BME280_temperature;BME280_humidity;BME280_pressure;Samples;Min_cycle;Max_cycle;Signal;HPM_P1;HPM_P2
2022/02/16 00:00:51;;;;;;;39.50;26.50;;;;;;;2.74;79.06;100146.17;88051;1278;82064;-67
2022/02/16 00:02:58;;;;;;;42.30;26.60;;;;;;;2.81;79.07;100149.27;88106;1277;100005;-66
2022/02/16 00:05:11;;;;;;;42.90;25.90;;;;;;;2.87;79.17;100151.31;88138;1278;87938;-67
2022/02/16 00:07:17;;;;;;;44.10;27.70;;;;;;;2.89;79.14;100148.47;88091;1277;92598;-70
2022/02/16 00:09:23;;;;;;;41.80;26.80;;;;;;;2.92;79.28;100144.04;88105;1278;79151;-71
2022/02/16 00:11:29;;;;;;;44.00;27.50;;;;;;;2.95;79.29;100139.20;88120;1278;80975;-70
2022/02/16 00:13:34;;;;;;;40.20;25.80;;;;;;;2.95;79.43;100134.94;88081;1278;98319;-71
2022/02/16 00:15:53;;;;;;;43.20;25.50;;;;;;;2.96;79.31;100127.18;88116;1278;88605;-71
2022/02/16 00:18:05;;;;;;;45.00;25.60;;;;;;;2.99;79.36;100127.42;88116;1278;94711;-72
2022/02/16 00:20:15;;;;;;;40.70;25.30;;;;;;;3.03;79.47;100125.63;88006;1279;79387;-70
2022/02/16 00:22:40;;;;;;;41.10;25.60;;;;;;;3.11;79.73;100123.95;88113;1277;82655;-70
2022/02/16 00:24:45;;;;;;;40.90;25.20;;;;;;;3.26;79.93;100127.64;88085;1276;97788;-72
2022/02/16 00:26:51;;;;;;;40.60;23.80;;;;;;;3.32;79.71;100130.63;88063;1278;88717;-71
2022/02/16 00:29:14;;;;;;;38.20;23.20;;;;;;;3.42;79.81;100132.79;88126;1276;93587;-70
2022/02/16 00:31:20;;;;;;;44.00;25.40;;;;;;;3.47;79.73;100133.20;88089;1276;81328;-66
2022/02/16 00:33:26;;;;;;;38.30;24.70;;;;;;;3.48;79.63;100129.00;88095;1276;85299;-67
2022/02/16 00:35:42;;;;;;;42.30;25.50;;;;;;;3.48;79.68;100118.67;88088;1276;97653;-66
2022/02/16 00:37:51;;;;;;;39.00;25.60;;;;;;;3.50;79.82;100116.70;88123;1276;88713;-68
2022/02/16 00:40:00;;;;;;;40.00;25.70;;;;;;;3.53;79.81;100112.00;88113;1276;95219;-66
2022/02/16 00:42:24;;;;;;;40.60;25.60;;;;;;;3.48;79.68;100110.60;88142;1276;78776;-72
2022/02/16 00:44:29;;;;;;;42.00;26.10;;;;;;;3.41;79.51;100109.25;88125;1276;80369;-70
2022/02/16 00:46:35;;;;;;;44.30;27.20;;;;;;;3.30;79.40;100106.58;88086;1276;99899;-70
2022/02/16 00:48:45;;;;;;;39.30;23.90;;;;;;;3.20;79.33;100105.95;88155;1276;88037;-71
2022/02/16 00:50:56;;;;;;;40.00;24.10;;;;;;;3.11;79.28;100104.90;87985;1279;94478;-70
2022/02/16 00:53:05;;;;;;;38.10;22.90;;;;;;;3.06;79.48;100098.66;88099;1276;81835;-67
2022/02/16 00:55:14;;;;;;;37.30;23.00;;;;;;;3.01;79.48;100094.39;88140;1276;80370;-67
2022/02/16 00:57:20;;;;;;;41.30;23.30;;;;;;;2.94;79.46;100093.00;88107;1276;98720;-67
2022/02/16 00:59:27;;;;;;;36.90;22.70;;;;;;;2.95;79.68;100089.94;88115;1276;87468;-69
2022/02/16 01:01:36;;;;;;;35.00;22.10;;;;;;;2.95;79.75;100087.61;88147;1276;93320;-71
2022/02/16 01:03:41;;;;;;;35.00;22.30;;;;;;;2.95;79.72;100087.45;88094;1276;76922;-72
2022/02/16 01:05:48;;;;;;;40.60;24.60;;;;;;;2.93;79.73;100086.55;88124;1276;83686;-72
2022/02/16 01:07:54;;;;;;;37.80;24.30;;;;;;;2.93;79.69;100083.20;88065;1279;98797;-72
2022/02/16 01:10:07;;;;;;;41.30;26.00;;;;;;;2.87;79.62;100080.58;88109;1276;88740;-70
2022/02/16 01:12:13;;;;;;;38.70;24.00;;;;;;;2.80;79.79;100081.42;88133;1276;94358;-71
2022/02/16 01:14:18;;;;;;;38.30;24.20;;;;;;;2.72;79.76;100082.17;88116;1276;79227;-70
2022/02/16 01:16:33;;;;;;;39.70;23.90;;;;;;;2.64;79.87;100083.70;88098;1276;82660;-68
2022/02/16 01:18:40;;;;;;;39.10;24.30;;;;;;;2.61;79.88;100082.56;88010;1279;97218;-67
2022/02/16 01:20:49;;;;;;;35.60;21.60;;;;;;;2.57;79.97;100084.00;88060;1278;88759;-67
2022/02/16 01:22:56;;;;;;;33.50;22.70;;;;;;;2.48;79.85;100075.89;88127;1276;95201;-67
2022/02/16 01:25:02;;;;;;;39.90;22.40;;;;;;;2.39;79.87;100073.16;88118;1276;79460;-67
2022/02/16 01:27:12;;;;;;;35.00;21.70;;;;;;;2.35;79.88;100064.64;88108;1274;82985;-66
2022/02/16 01:29:17;;;;;;;35.90;21.90;;;;;;;2.32;80.47;100057.12;88091;1276;99602;-67
2022/02/16 01:31:23;;;;;;;36.40;22.80;;;;;;;2.40;80.50;100050.67;88109;1276;89318;-71
2022/02/16 01:33:29;;;;;;;39.00;24.50;;;;;;;2.35;80.39;100042.71;88026;1279;95900;-72
2022/02/16 01:35:37;;;;;;;38.40;22.40;;;;;;;2.38;81.46;100045.34;88119;1276;80814;-70
2022/02/16 01:37:43;;;;;;;34.50;21.40;;;;;;;2.44;80.84;100044.80;88114;1276;80798;-71
2022/02/16 01:39:56;;;;;;;35.40;21.80;;;;;;;2.41;80.66;100043.48;88088;1276;99492;-71
2022/02/16 01:42:04;;;;;;;37.00;22.00;;;;;;;2.38;80.65;100036.42;88136;1277;89514;-71
2022/02/16 01:44:10;;;;;;;37.20;23.00;;;;;;;2.41;80.85;100035.86;88085;1276;94285;-72
2022/02/16 01:46:16;;;;;;;37.60;24.70;;;;;;;2.36;80.79;100029.39;88110;1276;78592;-71
2022/02/16 01:48:24;;;;;;;40.40;24.70;;;;;;;2.33;80.81;100029.81;88119;1276;82969;-70
2022/02/16 01:50:32;;;;;;;37.50;23.60;;;;;;;2.31;81.09;100023.77;88115;1277;100440;-72
2022/02/16 01:52:41;;;;;;;41.00;24.00;;;;;;;2.37;81.37;100025.54;88071;1278;87646;-72
2022/02/16 01:54:49;;;;;;;43.20;24.50;;;;;;;2.42;81.45;100022.23;88055;1279;93903;-72
2022/02/16 01:56:55;;;;;;;38.10;23.90;;;;;;;2.45;81.49;100021.55;88122;1277;79611;-66
2022/02/16 01:59:04;;;;;;;38.80;23.20;;;;;;;2.41;81.36;100022.30;88084;1279;80311;-67
2022/02/16 02:01:13;;;;;;;36.30;21.80;;;;;;;2.39;81.35;100020.23;88120;1277;99159;-68
2022/02/16 02:03:19;;;;;;;36.00;23.00;;;;;;;2.38;81.54;100019.54;88119;1276;88461;-72
2022/02/16 02:05:36;;;;;;;33.90;22.70;;;;;;;2.43;81.55;100015.27;88133;1276;93796;-71
2022/02/16 02:07:45;;;;;;;36.10;22.10;;;;;;;2.45;81.45;100012.16;88105;1276;78094;-72
2022/02/16 02:09:54;;;;;;;35.50;21.40;;;;;;;2.45;81.42;100008.25;88106;1276;82811;-72
2022/02/16 02:12:03;;;;;;;34.90;22.30;;;;;;;2.41;81.45;100010.44;88132;1277;98849;-67
2022/02/16 02:14:12;;;;;;;36.70;23.00;;;;;;;2.35;81.27;100013.59;88118;1276;88691;-66
2022/02/16 02:16:18;;;;;;;36.40;23.20;;;;;;;2.27;81.33;100016.19;88118;1276;95794;-67
2022/02/16 02:18:27;;;;;;;41.20;25.90;;;;;;;2.23;81.40;100011.80;88127;1276;77675;-67
2022/02/16 02:20:33;;;;;;;37.80;24.30;;;;;;;2.21;81.57;100015.36;88159;1276;82464;-67
2022/02/16 02:22:43;;;;;;;38.70;23.70;;;;;;;2.21;81.76;100013.56;88016;1280;99718;-70
2022/02/16 02:24:53;;;;;;;37.40;23.70;;;;;;;2.18;81.81;100009.95;88076;1276;88887;-71
2022/02/16 02:26:59;;;;;;;38.10;24.00;;;;;;;2.19;82.08;100004.48;88127;1276;94767;-74
2022/02/16 02:29:06;;;;;;;36.20;22.80;;;;;;;2.20;82.01;100000.35;88081;1276;80919;-71
2022/02/16 02:31:12;;;;;;;36.80;22.50;;;;;;;2.18;81.88;100000.14;88138;1276;83141;-68
2022/02/16 02:33:23;;;;;;;35.50;23.00;;;;;;;2.19;82.13;99998.28;88124;1276;98280;-71
2022/02/16 02:35:32;;;;;;;35.70;22.20;;;;;;;2.22;82.03;99996.04;88128;1277;88765;-72
2022/02/16 02:37:39;;;;;;;35.70;22.10;;;;;;;2.23;82.05;99994.70;88132;1277;93497;-71
2022/02/16 02:39:56;;;;;;;38.00;23.20;;;;;;;2.19;82.00;99996.05;88109;1277;81037;-72
2022/02/16 02:42:02;;;;;;;38.50;23.20;;;;;;;2.16;82.06;99996.63;88120;1277;81273;-67
2022/02/16 02:44:08;;;;;;;37.40;21.90;;;;;;;2.17;82.09;99993.90;88155;1276;99542;-67
2022/02/16 02:46:15;;;;;;;37.80;22.70;;;;;;;2.19;82.12;99995.65;88049;1279;88206;-71
2022/02/16 02:48:23;;;;;;;38.70;24.10;;;;;;;2.22;82.11;99992.20;88048;1278;94474;-70
2022/02/16 02:50:34;;;;;;;37.50;23.60;;;;;;;2.19;81.90;99991.25;88110;1277;77818;-71
2022/02/16 02:52:40;;;;;;;37.00;23.80;;;;;;;2.09;81.99;99981.70;88120;1277;81644;-71
2022/02/16 02:54:49;;;;;;;38.10;23.20;;;;;;;2.03;81.74;99981.94;88133;1277;97594;-70
2022/02/16 02:56:55;;;;;;;39.40;24.90;;;;;;;1.97;82.00;99983.73;88106;1278;89585;-68
2022/02/16 02:59:02;;;;;;;40.50;26.20;;;;;;;1.99;82.23;99977.35;88101;1278;94441;-68
2022/02/16 03:01:09;;;;;;;37.60;23.40;;;;;;;1.98;82.36;99979.58;88124;1278;79384;-68
2022/02/16 03:03:15;;;;;;;38.60;23.80;;;;;;;1.98;82.49;99978.11;88092;1277;80830;-70
2022/02/16 03:05:20;;;;;;;42.90;23.00;;;;;;;1.96;82.59;99977.46;88113;1278;99492;-71
2022/02/16 03:07:27;;;;;;;35.80;23.20;;;;;;;1.97;82.62;99976.30;88017;1278;88907;-71
2022/02/16 03:09:33;;;;;;;39.50;23.60;;;;;;;2.00;82.78;99974.06;88063;1277;92272;-72
2022/02/16 03:11:43;;;;;;;35.60;22.60;;;;;;;2.04;82.80;99974.95;88029;1277;81479;-68
2022/02/16 03:13:52;;;;;;;36.20;22.30;;;;;;;2.06;83.15;99976.48;88021;1277;79778;-68
2022/02/16 03:15:58;;;;;;;36.40;23.20;;;;;;;2.11;83.13;99973.46;88047;1277;97743;-67
2022/02/16 03:18:20;;;;;;;38.60;22.30;;;;;;;2.12;83.02;99969.30;88064;1277;89538;-68
2022/02/16 03:20:29;;;;;;;36.00;22.80;;;;;;;2.09;82.88;99964.14;88006;1281;95437;-68
2022/02/16 03:22:37;;;;;;;38.80;24.10;;;;;;;2.11;83.03;99957.67;88066;1277;77465;-67
2022/02/16 03:24:46;;;;;;;40.20;26.90;;;;;;;2.14;83.30;99951.58;88084;1277;83067;-68
2022/02/16 03:26:53;;;;;;;46.30;25.50;;;;;;;2.19;83.29;99945.80;88061;1277;99821;-69
2022/02/16 03:28:59;;;;;;;44.90;26.30;;;;;;;2.22;83.30;99941.14;88031;1277;89358;-71
2022/02/16 03:31:05;;;;;;;42.30;25.30;;;;;;;2.27;83.43;99934.14;87995;1281;94731;-72
2022/02/16 03:33:15;;;;;;;43.70;26.40;;;;;;;2.23;83.26;99938.11;88054;1278;79091;-67
2022/02/16 03:35:28;;;;;;;45.70;25.90;;;;;;;2.20;83.46;99939.58;87722;1278;427177;-68
2022/02/16 03:37:35;;;;;;;41.70;26.70;;;;;;;2.21;83.37;99941.29;88051;1277;98606;-71
2022/02/16 03:39:45;;;;;;;41.60;26.30;;;;;;;2.22;83.45;99941.88;88054;1277;88516;-71
2022/02/16 03:41:56;;;;;;;39.60;25.50;;;;;;;2.26;83.49;99942.18;87990;1281;93842;-68
2022/02/16 03:44:06;;;;;;;43.00;27.30;;;;;;;2.29;83.50;99940.19;88019;1277;80263;-67
2022/02/16 03:46:13;;;;;;;44.60;25.70;;;;;;;2.33;83.53;99941.00;88037;1277;82268;-68
2022/02/16 03:48:19;;;;;;;40.40;25.50;;;;;;;2.36;83.32;99939.28;88063;1277;100169;-67
2022/02/16 03:50:25;;;;;;;40.30;26.20;;;;;;;2.33;83.30;99936.04;88048;1277;88373;-67
2022/02/16 03:52:38;;;;;;;42.70;27.00;;;;;;;2.29;83.29;99935.50;88046;1277;94367;-70
2022/02/16 03:54:50;;;;;;;42.50;25.70;;;;;;;2.29;83.30;99935.02;88052;1278;82732;-71
2022/02/16 03:56:56;;;;;;;45.20;26.70;;;;;;;2.27;83.33;99935.40;88003;1281;81056;-66
2022/02/16 03:59:03;;;;;;;44.00;26.50;;;;;;;2.27;83.34;99935.50;88056;1277;99818;-67
2022/02/16 04:01:18;;;;;;;46.20;27.00;;;;;;;2.26;83.66;99933.63;88054;1277;89139;-67
2022/02/16 04:03:25;;;;;;;45.80;28.20;;;;;;;2.30;83.63;99932.38;88051;1277;94543;-71
2022/02/16 04:05:31;;;;;;;46.30;27.70;;;;;;;2.28;83.69;99932.05;88044;1277;81374;-71
2022/02/16 04:07:37;;;;;;;46.80;27.20;;;;;;;2.30;83.51;99933.67;88043;1277;79918;-67
2022/02/16 04:09:46;;;;;;;41.10;26.80;;;;;;;2.27;83.37;99934.14;88028;1278;100565;-67
2022/02/16 04:11:55;;;;;;;44.50;27.60;;;;;;;2.26;83.45;99936.32;87980;1280;87707;-71
2022/02/16 04:14:03;;;;;;;46.20;27.70;;;;;;;2.26;83.54;99937.73;88024;1277;95343;-70
2022/02/16 04:16:12;;;;;;;44.00;26.80;;;;;;;2.26;83.42;99939.91;88052;1277;80697;-71
2022/02/16 04:18:18;;;;;;;46.50;27.50;;;;;;;2.20;83.38;99939.02;88032;1277;83087;-69
2022/02/16 04:20:27;;;;;;;47.10;26.30;;;;;;;2.19;83.40;99936.84;88043;1278;99130;-69
2022/02/16 04:22:33;;;;;;;44.10;26.30;;;;;;;2.16;83.22;99930.95;88049;1277;87922;-67
2022/02/16 04:24:39;;;;;;;41.90;27.50;;;;;;;2.15;83.22;99929.95;88019;1277;95842;-67
2022/02/16 04:26:46;;;;;;;41.40;27.30;;;;;;;2.15;83.08;99928.22;88044;1277;76767;-71
2022/02/16 04:28:52;;;;;;;44.10;28.60;;;;;;;2.12;83.19;99923.46;88048;1277;81901;-70
2022/02/16 04:31:01;;;;;;;48.70;29.20;;;;;;;2.08;83.16;99915.88;88032;1277;100786;-69
2022/02/16 04:33:07;;;;;;;43.00;27.70;;;;;;;2.01;83.14;99911.60;88005;1277;88190;-67
2022/02/16 04:35:12;;;;;;;49.00;30.20;;;;;;;1.97;83.20;99909.35;88013;1277;96082;-67
2022/02/16 04:37:18;;;;;;;46.90;28.00;;;;;;;1.96;83.29;99904.67;88044;1277;78394;-70
2022/02/16 04:39:24;;;;;;;43.50;27.60;;;;;;;1.92;83.22;99908.80;88064;1277;81938;-70
2022/02/16 04:41:33;;;;;;;44.60;27.90;;;;;;;1.85;83.19;99907.50;88060;1275;96880;-71
2022/02/16 04:43:38;;;;;;;43.90;27.60;;;;;;;1.81;83.28;99902.88;88057;1277;87873;-70
2022/02/16 04:45:47;;;;;;;47.60;26.90;;;;;;;1.87;83.51;99899.88;88044;1277;95068;-70
2022/02/16 04:47:54;;;;;;;45.00;27.40;;;;;;;1.90;83.62;99904.05;88041;1278;80562;-71
2022/02/16 04:50:00;;;;;;;47.70;28.80;;;;;;;1.90;83.70;99905.02;88033;1281;80994;-70
2022/02/16 04:52:09;;;;;;;44.80;27.10;;;;;;;1.95;83.78;99906.75;88069;1277;98493;-69
2022/02/16 04:54:15;;;;;;;45.00;28.90;;;;;;;1.96;83.65;99901.10;88013;1278;87403;-71
2022/02/16 04:56:24;;;;;;;46.60;29.40;;;;;;;2.01;83.62;99894.73;88080;1277;92340;-70
2022/02/16 04:58:34;;;;;;;48.80;28.50;;;;;;;2.03;83.71;99891.91;88047;1277;77846;-65
2022/02/16 05:00:39;;;;;;;47.00;29.10;;;;;;;2.03;83.75;99885.33;88073;1278;82311;-65
2022/02/16 05:02:46;;;;;;;46.30;29.10;;;;;;;2.00;83.72;99887.17;88004;1281;98275;-72
2022/02/16 05:04:56;;;;;;;48.80;27.80;;;;;;;1.93;83.48;99881.85;88031;1277;89414;-69
2022/02/16 05:07:06;;;;;;;47.10;28.70;;;;;;;1.85;83.55;99878.45;88021;1277;94084;-64
2022/02/16 05:09:11;;;;;;;46.40;27.80;;;;;;;1.78;83.64;99881.30;88058;1277;79554;-64
2022/02/16 05:11:17;;;;;;;47.10;28.00;;;;;;;1.78;83.68;99874.45;88016;1277;80520;-66
2022/02/16 05:13:23;;;;;;;44.20;27.70;;;;;;;1.80;83.77;99872.99;88032;1277;99711;-65
2022/02/16 05:15:34;;;;;;;44.90;28.40;;;;;;;1.84;84.32;99867.09;88073;1277;89457;-66
2022/02/16 05:17:43;;;;;;;46.00;27.50;;;;;;;1.91;84.17;99865.35;88051;1277;94954;-65
2022/02/16 05:19:48;;;;;;;48.90;28.00;;;;;;;1.94;84.12;99866.52;88042;1277;82274;-66
2022/02/16 05:21:54;;;;;;;44.70;26.00;;;;;;;2.01;84.27;99862.78;88052;1277;83104;-67
2022/02/16 05:24:00;;;;;;;46.50;27.10;;;;;;;2.08;84.24;99861.02;88043;1277;98716;-64
2022/02/16 05:26:08;;;;;;;43.20;27.90;;;;;;;2.10;84.16;99861.33;88064;1277;88957;-65
2022/02/16 05:28:14;;;;;;;47.40;27.50;;;;;;;2.13;84.23;99859.59;87978;1279;94793;-71
2022/02/16 05:30:20;;;;;;;49.90;31.40;;;;;;;2.17;84.29;99854.83;88067;1278;78965;-70
2022/02/16 05:32:25;;;;;;;45.70;27.50;;;;;;;2.19;84.33;99850.30;88057;1277;83115;-69
2022/02/16 05:34:31;;;;;;;46.10;28.10;;;;;;;2.15;84.24;99847.60;88046;1277;100133;-71
2022/02/16 05:36:43;;;;;;;43.60;27.70;;;;;;;2.11;84.22;99847.04;88072;1277;88647;-66
2022/02/16 05:38:52;;;;;;;48.50;28.30;;;;;;;2.07;84.14;99846.89;88048;1277;95620;-66
2022/02/16 05:40:57;;;;;;;43.00;26.00;;;;;;;2.09;84.31;99842.40;88040;1277;79508;-66
2022/02/16 05:43:04;;;;;;;43.50;26.00;;;;;;;2.11;84.35;99841.05;88094;1277;80121;-66
2022/02/16 05:45:13;;;;;;;43.20;26.20;;;;;;;2.15;84.40;99837.80;88057;1277;98655;-66
2022/02/16 05:47:21;;;;;;;45.60;26.90;;;;;;;2.21;84.41;99841.42;88073;1277;89132;-66
2022/02/16 05:49:27;;;;;;;39.80;25.30;;;;;;;2.26;84.42;99842.19;88082;1277;93159;-66
2022/02/16 05:51:33;;;;;;;43.40;26.70;;;;;;;2.30;84.53;99835.23;88046;1277;77501;-65
2022/02/16 05:53:40;;;;;;;43.80;27.20;;;;;;;2.34;84.61;99829.09;88064;1277;80184;-65
2022/02/16 05:55:48;;;;;;;42.60;25.80;;;;;;;2.37;84.54;99833.59;88058;1278;99525;-64
2022/02/16 05:57:54;;;;;;;44.40;27.50;;;;;;;2.37;84.29;99835.77;88017;1279;89713;-70
2022/02/16 06:00:00;;;;;;;49.20;29.80;;;;;;;2.40;84.26;99838.53;88061;1278;95129;-71
2022/02/16 06:02:09;;;;;;;47.80;27.70;;;;;;;2.39;84.18;99840.13;88036;1277;79874;-66
2022/02/16 06:04:22;;;;;;;46.30;27.70;;;;;;;2.40;84.21;99833.54;88013;1279;83217;-66
2022/02/16 06:06:27;;;;;;;49.20;28.20;;;;;;;2.42;84.16;99832.65;88077;1277;98595;-66
2022/02/16 06:08:33;;;;;;;43.00;26.10;;;;;;;2.44;84.14;99829.74;88036;1277;88731;-66
2022/02/16 06:10:38;;;;;;;47.20;27.20;;;;;;;2.48;84.09;99826.63;88066;1277;95392;-65
2022/02/16 06:12:44;;;;;;;41.20;26.40;;;;;;;2.57;84.17;99834.14;88023;1277;79584;-70
2022/02/16 06:15:03;;;;;;;44.70;26.30;;;;;;;2.64;84.18;99832.02;88065;1277;80166;-70
2022/02/16 06:17:11;;;;;;;41.30;26.00;;;;;;;2.72;84.08;99834.35;88085;1277;99703;-65
2022/02/16 06:19:20;;;;;;;42.80;26.60;;;;;;;2.82;84.04;99837.94;88053;1277;89420;-65
2022/02/16 06:21:28;;;;;;;43.00;26.80;;;;;;;2.92;83.99;99838.36;88075;1277;94757;-66
2022/02/16 06:23:37;;;;;;;43.70;27.20;;;;;;;2.99;84.05;99838.52;88085;1277;77692;-64
2022/02/16 06:25:46;;;;;;;42.80;28.60;;;;;;;3.07;83.80;99835.10;88073;1277;83390;-66
2022/02/16 06:27:52;;;;;;;46.80;30.40;;;;;;;3.15;83.78;99833.16;88077;1275;99363;-72
2022/02/16 06:29:58;;;;;;;46.60;29.90;;;;;;;3.24;83.71;99828.95;88079;1277;88956;-70
2022/02/16 06:32:11;;;;;;;48.80;28.30;;;;;;;3.28;83.55;99827.17;88078;1277;93780;-65
2022/02/16 06:34:17;;;;;;;47.50;27.00;;;;;;;3.34;83.53;99823.59;88039;1277;80355;-65
2022/02/16 06:36:26;;;;;;;42.10;25.20;;;;;;;3.37;83.43;99818.21;88089;1277;82671;-69
2022/02/16 06:38:35;;;;;;;41.00;26.10;;;;;;;3.44;83.32;99809.70;88071;1277;98062;-69
2022/02/16 06:40:41;;;;;;;41.20;25.10;;;;;;;3.51;83.38;99807.40;88024;1279;89305;-71
2022/02/16 06:42:52;;;;;;;42.50;26.60;;;;;;;3.58;83.44;99803.26;88044;1277;94448;-71
2022/02/16 06:44:58;;;;;;;41.30;26.70;;;;;;;3.74;83.20;99806.38;88071;1277;77375;-69
2022/02/16 06:47:04;;;;;;;43.90;27.70;;;;;;;3.87;83.03;99806.80;88069;1279;82252;-71
2022/02/16 06:49:17;;;;;;;42.90;27.80;;;;;;;4.02;83.01;99806.29;88052;1277;99744;-70
2022/02/16 06:51:27;;;;;;;45.90;27.80;;;;;;;4.18;82.97;99800.41;88068;1277;87674;-65
2022/02/16 06:53:36;;;;;;;44.60;28.10;;;;;;;4.35;82.77;99792.01;88078;1277;95879;-66
2022/02/16 06:55:42;;;;;;;46.90;29.50;;;;;;;4.43;82.60;99793.48;88078;1277;77083;-66
2022/02/16 06:57:52;;;;;;;46.90;29.00;;;;;;;4.52;82.76;99786.98;88083;1277;82782;-71
2022/02/16 07:00:08;;;;;;;43.20;28.20;;;;;;;4.58;82.55;99782.01;88079;1277;97960;-71
2022/02/16 07:02:14;;;;;;;44.10;27.20;;;;;;;4.77;82.53;99781.04;88106;1277;87561;-71
2022/02/16 07:04:23;;;;;;;43.30;28.10;;;;;;;5.07;82.19;99777.48;87972;1281;93755;-70
2022/02/16 07:06:36;;;;;;;42.00;28.10;;;;;;;5.30;81.96;99779.67;88072;1277;80478;-72
2022/02/16 07:08:43;;;;;;;41.30;28.70;;;;;;;5.51;81.80;99777.68;88017;1279;82530;-70
2022/02/16 07:10:51;;;;;;;43.90;28.50;;;;;;;5.78;81.91;99772.34;88059;1277;97856;-65
2022/02/16 07:13:02;;;;;;;47.20;29.10;;;;;;;6.14;81.68;99765.30;88101;1277;87589;-76
2022/02/16 07:15:12;;;;;;;44.80;29.40;;;;;;;6.37;81.69;99765.27;88015;1279;95954;-75
2022/02/16 07:17:33;;;;;;;44.30;29.80;;;;;;;6.53;81.18;99764.44;88062;1278;81289;-64
2022/02/16 07:19:43;;;;;;;43.10;29.40;;;;;;;6.74;80.57;99756.23;88087;1277;80935;-74
2022/02/16 07:21:57;;;;;;;42.30;28.70;;;;;;;7.01;80.01;99759.04;88074;1277;98875;-78
2022/02/16 07:24:08;;;;;;;42.50;29.30;;;;;;;7.17;78.90;99756.47;88090;1277;86721;-75
2022/02/16 07:26:17;;;;;;;45.10;30.30;;;;;;;7.45;78.91;99757.35;88079;1279;95037;-76
2022/02/16 07:28:26;;;;;;;46.40;29.40;;;;;;;7.91;78.99;99750.81;88126;1277;77806;-75
2022/02/16 07:30:33;;;;;;;44.40;30.70;;;;;;;8.38;78.80;99746.21;88077;1278;82083;-77
2022/02/16 07:32:42;;;;;;;42.90;28.80;;;;;;;8.88;78.55;99747.70;88128;1277;98269;-76
2022/02/16 07:34:51;;;;;;;41.40;29.90;;;;;;;9.48;78.10;99746.02;88109;1277;87924;-76
2022/02/16 07:37:00;;;;;;;81.30;53.70;;;;;;;10.09;77.43;99745.20;87978;1279;95547;-63
2022/02/16 07:39:06;;;;;;;85.30;57.80;;;;;;;10.64;76.06;99744.20;88065;1277;79202;-65
2022/02/16 07:41:13;;;;;;;46.80;33.20;;;;;;;11.26;75.24;99739.02;88040;1278;81088;-71
2022/02/16 07:43:22;;;;;;;42.10;30.50;;;;;;;11.93;74.92;99744.13;88062;1277;99199;-65
2022/02/16 07:45:28;;;;;;;40.50;29.00;;;;;;;12.91;73.87;99739.74;88060;1277;86949;-64
2022/02/16 07:47:38;;;;;;;39.90;30.10;;;;;;;13.68;72.80;99737.86;88079;1277;94563;-74
2022/02/16 07:49:44;;;;;;;39.00;28.40;;;;;;;14.28;71.29;99733.52;88068;1277;78904;-75
2022/02/16 07:51:50;;;;;;;39.50;30.40;;;;;;;14.59;69.22;99730.59;88106;1277;81864;-65
2022/02/16 07:53:57;;;;;;;38.00;29.30;;;;;;;14.88;66.53;99731.88;88054;1277;99561;-65
2022/02/16 07:56:11;;;;;;;37.10;30.30;;;;;;;14.73;66.50;99731.39;88073;1278;88650;-65
2022/02/16 07:58:17;;;;;;;38.00;29.80;;;;;;;14.87;66.28;99731.73;88053;1277;94040;-64
2022/02/16 08:00:24;;;;;;;37.00;28.20;;;;;;;15.25;65.11;99733.43;88060;1277;79705;-65
2022/02/16 08:02:30;;;;;;;37.10;28.70;;;;;;;15.90;64.99;99727.55;88078;1277;82212;-74
2022/02/16 08:04:43;;;;;;;36.80;28.60;;;;;;;16.38;63.16;99729.89;88049;1277;98576;-75
2022/02/16 08:06:54;;;;;;;39.40;29.70;;;;;;;16.98;62.86;99723.61;88037;1277;87118;-74
2022/02/16 08:09:03;;;;;;;33.70;27.30;;;;;;;17.33;60.71;99724.27;88025;1279;96159;-75
2022/02/16 08:11:12;;;;;;;31.70;26.50;;;;;;;17.44;60.92;99726.98;88061;1277;81640;-75
2022/02/16 08:13:19;;;;;;;28.50;24.00;;;;;;;17.81;60.12;99720.11;88078;1277;82308;-64
2022/02/16 08:15:25;;;;;;;31.30;25.70;;;;;;;17.88;57.72;99717.69;88085;1277;98845;-66
2022/02/16 08:17:31;;;;;;;30.10;24.10;;;;;;;18.18;56.04;99718.23;88068;1277;88345;-75
2022/02/16 08:19:37;;;;;;;28.50;23.50;;;;;;;18.26;53.67;99719.52;88084;1277;94163;-75
2022/02/16 08:21:44;;;;;;;27.10;21.40;;;;;;;18.35;52.70;99715.96;88052;1277;78399;-65
2022/02/16 08:23:54;;;;;;;29.10;22.20;;;;;;;18.49;53.64;99710.46;88076;1277;82005;-65
2022/02/16 08:26:03;;;;;;;28.70;22.60;;;;;;;18.60;52.02;99707.51;88060;1277;99095;-65
2022/02/16 08:28:10;;;;;;;26.40;21.10;;;;;;;18.40;48.99;99705.25;87950;1281;87489;-65
2022/02/16 08:30:17;;;;;;;25.80;21.60;;;;;;;18.06;49.54;99707.70;87964;1281;95519;-66
2022/02/16 08:32:22;;;;;;;25.60;21.80;;;;;;;18.26;49.63;99701.81;88052;1277;78026;-65
2022/02/16 08:34:29;;;;;;;24.30;20.50;;;;;;;18.36;47.73;99693.94;88068;1277;81530;-64
2022/02/16 08:36:35;;;;;;;24.70;20.40;;;;;;;18.60;48.17;99689.55;88053;1277;98113;-76
2022/02/16 08:38:42;;;;;;;26.10;19.70;;;;;;;18.76;47.12;99687.69;88086;1277;88305;-65
2022/02/16 08:40:49;;;;;;;23.60;19.70;;;;;;;18.96;46.96;99681.89;88056;1277;93956;-66
2022/02/16 08:42:55;;;;;;;23.80;19.60;;;;;;;19.00;47.19;99680.49;88044;1277;78222;-65
2022/02/16 08:45:05;;;;;;;24.70;19.20;;;;;;;18.92;46.41;99671.23;88069;1277;82974;-75
2022/02/16 08:47:14;;;;;;;25.80;19.40;;;;;;;18.90;45.69;99662.23;88055;1277;99152;-75
2022/02/16 08:49:23;;;;;;;22.40;18.70;;;;;;;18.96;45.91;99655.98;88077;1277;88585;-75
2022/02/16 08:51:30;;;;;;;21.60;17.50;;;;;;;19.10;46.10;99648.00;88048;1277;95654;-65
2022/02/16 08:53:39;;;;;;;21.00;17.80;;;;;;;19.33;45.71;99641.52;88040;1278;77277;-66
2022/02/16 08:55:48;;;;;;;20.90;18.10;;;;;;;19.30;44.50;99645.45;88044;1277;82259;-65
2022/02/16 08:57:59;;;;;;;19.20;17.00;;;;;;;19.12;44.49;99635.20;88055;1277;100389;-66
2022/02/16 09:00:09;;;;;;;20.90;16.80;;;;;;;19.12;45.10;99631.27;88062;1277;88888;-66
2022/02/16 09:02:15;;;;;;;19.90;16.90;;;;;;;19.18;44.13;99629.91;88037;1277;93393;-63
2022/02/16 09:04:22;;;;;;;19.10;16.80;;;;;;;18.96;42.85;99625.94;88045;1277;78658;-64
2022/02/16 09:06:33;;;;;;;20.20;16.80;;;;;;;18.84;42.70;99625.70;88084;1277;82563;-65
2022/02/16 09:08:46;;;;;;;21.30;17.30;;;;;;;18.87;42.46;99629.92;88055;1277;100458;-65
2022/02/16 09:10:53;;;;;;;19.50;16.40;;;;;;;19.00;42.96;99619.73;88087;1278;88682;-65
2022/02/16 09:13:02;;;;;;;16.90;15.10;;;;;;;19.18;43.07;99618.36;87986;1279;97358;-76
2022/02/16 09:15:10;;;;;;;21.30;15.90;;;;;;;19.21;42.18;99611.27;87979;1279;80206;-73
2022/02/16 09:17:16;;;;;;;18.70;15.60;;;;;;;18.89;41.22;99602.89;88041;1277;82889;-77
2022/02/16 09:19:23;;;;;;;18.00;15.20;;;;;;;18.84;42.30;99603.73;88057;1277;99660;-75
2022/02/16 09:21:29;;;;;;;17.40;15.00;;;;;;;19.15;43.20;99603.40;88039;1277;88111;-68
2022/02/16 09:23:41;;;;;;;18.50;14.80;;;;;;;19.49;42.45;99609.76;88036;1277;94812;-66
2022/02/16 09:25:48;;;;;;;17.60;15.30;;;;;;;19.25;41.24;99610.81;88050;1278;79589;-64
2022/02/16 09:27:57;;;;;;;18.20;14.70;;;;;;;19.24;41.76;99606.41;88002;1279;81457;-74
2022/02/16 09:30:10;;;;;;;18.50;14.40;;;;;;;18.93;39.76;99607.69;88074;1277;98997;-74
2022/02/16 09:32:17;;;;;;;17.00;14.70;;;;;;;18.39;39.71;99605.75;88041;1277;87836;-75
2022/02/16 09:34:24;;;;;;;17.80;14.30;;;;;;;18.17;40.41;99606.77;87996;1278;92869;-75
2022/02/16 09:36:35;;;;;;;17.20;14.10;;;;;;;18.12;41.69;99600.06;88088;1277;79631;-75
2022/02/16 09:38:44;;;;;;;17.50;14.10;;;;;;;18.38;41.95;99603.58;88062;1277;80803;-74
2022/02/16 09:40:53;;;;;;;16.90;14.10;;;;;;;17.83;38.72;99600.75;87949;1279;100929;-74
2022/02/16 09:43:03;;;;;;;18.70;13.70;;;;;;;17.40;39.76;99600.96;88080;1277;87774;-63
2022/02/16 09:45:14;;;;;;;17.50;13.20;;;;;;;17.31;40.21;99595.66;88024;1277;94109;-62
2022/02/16 09:47:21;;;;;;;16.80;12.40;;;;;;;17.38;41.00;99587.13;88054;1277;77341;-62
2022/02/16 09:49:28;;;;;;;19.20;12.70;;;;;;;17.63;40.77;99579.95;88083;1278;83020;-63
2022/02/16 09:51:38;;;;;;;15.90;12.90;;;;;;;17.74;40.54;99569.47;88045;1277;97367;-62
2022/02/16 09:53:45;;;;;;;16.00;12.50;;;;;;;17.79;40.59;99568.88;88058;1277;87553;-62